sensor_id;sensor_type;location;lat;lon;timestamp;pressure;altitude;pressure_sealevel;temperature;humidity
39699;BME280;25372;50.582;12.250;2022-08-21T00:06:30;99738.38;;;17.32;100.00
39699;BME280;25372;50.582;12.250;2022-08-21T00:16:52;99742.66;;;17.21;100.00
39699;BME280;25372;50.582;12.250;2022-08-21T00:27:14;99723.31;;;17.19;100.00
39699;BME280;25372;50.582;12.250;2022-08-21T00:37:35;99733.31;;;17.24;100.00
39699;BME280;25372;50.582;12.250;2022-08-21T00:47:57;99720.75;;;17.13;100.00
39699;BME280;25372;50.582;12.250;2022-08-21T00:58:19;99725.88;;;17.14;100.00
39699;BME280;25372;50.582;12.250;2022-08-21T01:08:42;99735.44;;;17.22;100.00
39699;BME280;25372;50.582;12.250;2022-08-21T01:19:02;99753.69;;;17.13;100.00
39699;BME280;25372;50.582;12.250;2022-08-21T01:29:32;99757.72;;;16.73;100.00
39699;BME280;25372;50.582;12.250;2022-08-21T01:39:55;99760.28;;;16.50;100.00
39699;BME280;25372;50.582;12.250;2022-08-21T01:50:20;99758.94;;;16.59;100.00
39699;BME280;25372;50.582;12.250;2022-08-21T02:00:41;99756.75;;;16.68;100.00
39699;BME280;25372;50.582;12.250;2022-08-21T02:11:04;99740.66;;;16.56;100.00
39699;BME280;25372;50.582;12.250;2022-08-21T02:21:25;99739.28;;;16.65;100.00
39699;BME280;25372;50.582;12.250;2022-08-21T02:31:47;99714.44;;;16.46;100.00
39699;BME280;25372;50.582;12.250;2022-08-21T02:42:08;99740.03;;;16.54;100.00
39699;BME280;25372;50.582;12.250;2022-08-21T02:52:30;99736.03;;;16.63;100.00
39699;BME280;25372;50.582;12.250;2022-08-21T03:02:51;99735.44;;;16.61;100.00
39699;BME280;25372;50.582;12.250;2022-08-21T03:13:14;99727.63;;;16.60;100.00
39699;BME280;25372;50.582;12.250;2022-08-21T03:23:35;99732.91;;;16.66;100.00
39699;BME280;25372;50.582;12.250;2022-08-21T03:34:00;99734.47;;;16.86;100.00
39699;BME280;25372;50.582;12.250;2022-08-21T03:44:21;99751.19;;;16.69;100.00
39699;BME280;25372;50.582;12.250;2022-08-21T03:54:44;99750.91;;;16.59;100.00
39699;BME280;25372;50.582;12.250;2022-08-21T04:05:05;99762.63;;;16.77;100.00
39699;BME280;25372;50.582;12.250;2022-08-21T04:15:28;99763.91;;;16.86;100.00
39699;BME280;25372;50.582;12.250;2022-08-21T04:25:49;99766.84;;;16.84;100.00
39699;BME280;25372;50.582;12.250;2022-08-21T04:36:11;99766.47;;;16.81;100.00
39699;BME280;25372;50.582;12.250;2022-08-21T04:46:32;99767.28;;;17.00;100.00
39699;BME280;25372;50.582;12.250;2022-08-21T04:56:58;99773.59;;;17.05;100.00
39699;BME280;25372;50.582;12.250;2022-08-21T05:07:27;99747.75;;;17.11;100.00
39699;BME280;25372;50.582;12.250;2022-08-21T05:17:51;99785.00;;;17.67;100.00
39699;BME280;25372;50.582;12.250;2022-08-21T05:28:12;99787.22;;;17.82;100.00
39699;BME280;25372;50.582;12.250;2022-08-21T05:38:34;99788.75;;;17.77;100.00
39699;BME280;25372;50.582;12.250;2022-08-21T05:48:55;99792.34;;;17.71;100.00
39699;BME280;25372;50.582;12.250;2022-08-21T05:59:17;99789.69;;;17.71;100.00
39699;BME280;25372;50.582;12.250;2022-08-21T06:09:39;99753.44;;;17.69;100.00
39699;BME280;25372;50.582;12.250;2022-08-21T06:20:03;99804.81;;;17.89;100.00
39699;BME280;25372;50.582;12.250;2022-08-21T06:30:24;99809.47;;;17.82;100.00
39699;BME280;25372;50.582;12.250;2022-08-21T06:40:46;99805.09;;;18.35;100.00
39699;BME280;25372;50.582;12.250;2022-08-21T06:51:06;99799.78;;;18.64;100.00
39699;BME280;25372;50.582;12.250;2022-08-21T07:01:29;99801.22;;;18.84;100.00
39699;BME280;25372;50.582;12.250;2022-08-21T07:11:52;99799.06;;;19.26;99.64
39699;BME280;25372;50.582;12.250;2022-08-21T07:22:16;99803.81;;;19.36;98.36
39699;BME280;25372;50.582;12.250;2022-08-21T07:32:38;99792.56;;;19.39;97.28
39699;BME280;25372;50.582;12.250;2022-08-21T07:43:01;99801.13;;;19.36;93.28
39699;BME280;25372;50.582;12.250;2022-08-21T07:53:22;99814.78;;;18.77;96.91
39699;BME280;25372;50.582;12.250;2022-08-21T08:03:44;99827.09;;;19.30;97.08
39699;BME280;25372;50.582;12.250;2022-08-21T08:14:05;99831.81;;;18.82;95.94
39699;BME280;25372;50.582;12.250;2022-08-21T08:24:27;99833.41;;;19.70;93.93
39699;BME280;25372;50.582;12.250;2022-08-21T08:34:48;99826.91;;;20.00;90.40
39699;BME280;25372;50.582;12.250;2022-08-21T08:45:14;99828.66;;;20.67;85.38
39699;BME280;25372;50.582;12.250;2022-08-21T08:55:38;99831.97;;;20.75;87.40
39699;BME280;25372;50.582;12.250;2022-08-21T09:06:05;99848.63;;;20.71;87.17
39699;BME280;25372;50.582;12.250;2022-08-21T09:16:39;99829.03;;;20.76;77.97
39699;BME280;25372;50.582;12.250;2022-08-21T09:27:07;99817.88;;;20.89;79.58
39699;BME280;25372;50.582;12.250;2022-08-21T09:37:31;99816.69;;;20.58;73.47
39699;BME280;25372;50.582;12.250;2022-08-21T09:47:55;99814.84;;;21.63;68.50
39699;BME280;25372;50.582;12.250;2022-08-21T09:58:17;99810.06;;;21.48;68.26
39699;BME280;25372;50.582;12.250;2022-08-21T10:08:40;99806.69;;;21.57;66.37
39699;BME280;25372;50.582;12.250;2022-08-21T10:19:11;99809.63;;;20.74;66.87
39699;BME280;25372;50.582;12.250;2022-08-21T10:29:45;99817.44;;;21.25;66.23
39699;BME280;25372;50.582;12.250;2022-08-21T10:40:16;99819.13;;;21.58;63.91
39699;BME280;25372;50.582;12.250;2022-08-21T10:50:48;99812.38;;;21.93;66.48
39699;BME280;25372;50.582;12.250;2022-08-21T11:01:15;99801.53;;;21.88;64.28
39699;BME280;25372;50.582;12.250;2022-08-21T11:11:41;99819.78;;;22.19;59.08
39699;BME280;25372;50.582;12.250;2022-08-21T11:22:10;99812.53;;;22.24;57.40
39699;BME280;25372;50.582;12.250;2022-08-21T11:33:03;99808.97;;;22.67;56.21
39699;BME280;25372;50.582;12.250;2022-08-21T11:43:37;99808.41;;;22.54;56.63
39699;BME280;25372;50.582;12.250;2022-08-21T11:54:04;99805.06;;;21.94;53.78
39699;BME280;25372;50.582;12.250;2022-08-21T12:04:28;99781.53;;;21.84;56.68
39699;BME280;25372;50.582;12.250;2022-08-21T12:15:02;99784.31;;;22.42;54.38
39699;BME280;25372;50.582;12.250;2022-08-21T12:25:25;99789.84;;;22.15;60.17
39699;BME280;25372;50.582;12.250;2022-08-21T12:35:47;99774.56;;;22.36;56.92
39699;BME280;25372;50.582;12.250;2022-08-21T12:46:15;99780.38;;;22.18;55.88
39699;BME280;25372;50.582;12.250;2022-08-21T12:56:38;99780.19;;;22.29;55.06
39699;BME280;25372;50.582;12.250;2022-08-21T13:06:59;99778.25;;;22.20;55.09
39699;BME280;25372;50.582;12.250;2022-08-21T13:17:24;99772.53;;;22.16;57.25
39699;BME280;25372;50.582;12.250;2022-08-21T13:27:57;99732.75;;;22.49;57.04
39699;BME280;25372;50.582;12.250;2022-08-21T13:38:22;99758.31;;;23.66;50.82
39699;BME280;25372;50.582;12.250;2022-08-21T13:48:45;99752.41;;;23.39;48.54
39699;BME280;25372;50.582;12.250;2022-08-21T13:59:07;99756.97;;;23.48;47.01
39699;BME280;25372;50.582;12.250;2022-08-21T14:09:31;99715.31;;;23.44;51.12
39699;BME280;25372;50.582;12.250;2022-08-21T14:19:54;99764.31;;;22.38;49.22
39699;BME280;25372;50.582;12.250;2022-08-21T14:30:17;99757.41;;;22.10;49.18
39699;BME280;25372;50.582;12.250;2022-08-21T14:40:44;99742.00;;;22.63;46.76
39699;BME280;25372;50.582;12.250;2022-08-21T14:51:07;99755.78;;;22.72;50.16
39699;BME280;25372;50.582;12.250;2022-08-21T15:01:32;99756.69;;;22.30;46.48
39699;BME280;25372;50.582;12.250;2022-08-21T15:11:56;99754.09;;;21.98;51.12
39699;BME280;25372;50.582;12.250;2022-08-21T15:22:19;99754.78;;;22.31;48.93
39699;BME280;25372;50.582;12.250;2022-08-21T15:32:40;99746.97;;;23.23;45.21
39699;BME280;25372;50.582;12.250;2022-08-21T15:43:04;99753.66;;;22.79;46.04
39699;BME280;25372;50.582;12.250;2022-08-21T15:53:25;99760.13;;;22.84;45.42
39699;BME280;25372;50.582;12.250;2022-08-21T16:03:49;99747.41;;;22.05;47.59
39699;BME280;25372;50.582;12.250;2022-08-21T16:14:11;99737.75;;;21.07;52.83
39699;BME280;25372;50.582;12.250;2022-08-21T16:24:34;99733.75;;;20.82;58.23
39699;BME280;25372;50.582;12.250;2022-08-21T16:34:55;99741.25;;;22.15;50.82
39699;BME280;25372;50.582;12.250;2022-08-21T16:45:19;99733.38;;;21.33;54.12
39699;BME280;25372;50.582;12.250;2022-08-21T16:55:40;99738.50;;;19.87;65.81
39699;BME280;25372;50.582;12.250;2022-08-21T17:06:02;99703.56;;;19.36;66.65
39699;BME280;25372;50.582;12.250;2022-08-21T17:16:24;99732.72;;;19.44;68.52
39699;BME280;25372;50.582;12.250;2022-08-21T17:26:47;99725.94;;;18.90;69.85
39699;BME280;25372;50.582;12.250;2022-08-21T17:37:08;99741.84;;;18.27;74.46
39699;BME280;25372;50.582;12.250;2022-08-21T17:47:30;99748.91;;;17.69;85.72
39699;BME280;25372;50.582;12.250;2022-08-21T17:57:51;99749.38;;;17.12;87.39
39699;BME280;25372;50.582;12.250;2022-08-21T18:08:15;99755.66;;;16.57;90.25
39699;BME280;25372;50.582;12.250;2022-08-21T18:18:41;99769.03;;;16.01;93.28
39699;BME280;25372;50.582;12.250;2022-08-21T18:29:05;99766.31;;;15.58;94.97
39699;BME280;25372;50.582;12.250;2022-08-21T18:39:29;99763.63;;;15.32;96.19
39699;BME280;25372;50.582;12.250;2022-08-21T18:49:51;99777.75;;;15.08;97.33
39699;BME280;25372;50.582;12.250;2022-08-21T19:00:16;99777.44;;;14.91;96.68
39699;BME280;25372;50.582;12.250;2022-08-21T19:10:41;99787.78;;;14.74;98.84
39699;BME280;25372;50.582;12.250;2022-08-21T19:21:03;99795.78;;;14.60;99.58
39699;BME280;25372;50.582;12.250;2022-08-21T19:31:27;99789.13;;;14.38;99.44
39699;BME280;25372;50.582;12.250;2022-08-21T19:41:51;99799.81;;;14.24;100.00
39699;BME280;25372;50.582;12.250;2022-08-21T19:52:15;99800.41;;;14.20;100.00
39699;BME280;25372;50.582;12.250;2022-08-21T20:02:37;99806.88;;;14.57;95.48
39699;BME280;25372;50.582;12.250;2022-08-21T20:12:59;99788.09;;;14.91;88.72
39699;BME280;25372;50.582;12.250;2022-08-21T20:23:20;99775.91;;;15.08;85.26
39699;BME280;25372;50.582;12.250;2022-08-21T20:33:42;99773.53;;;14.87;90.19
39699;BME280;25372;50.582;12.250;2022-08-21T20:44:03;99784.81;;;14.43;94.38
39699;BME280;25372;50.582;12.250;2022-08-21T20:54:29;99774.91;;;14.64;86.18
39699;BME280;25372;50.582;12.250;2022-08-21T21:04:58;99766.72;;;14.52;90.72
39699;BME280;25372;50.582;12.250;2022-08-21T21:15:26;99784.34;;;14.53;88.01
39699;BME280;25372;50.582;12.250;2022-08-21T21:25:54;99787.69;;;14.35;93.52
39699;BME280;25372;50.582;12.250;2022-08-21T21:36:28;99786.72;;;14.09;95.16
39699;BME280;25372;50.582;12.250;2022-08-21T21:46:54;99767.69;;;13.86;96.90
39699;BME280;25372;50.582;12.250;2022-08-21T21:57:35;99788.19;;;13.85;98.07
39699;BME280;25372;50.582;12.250;2022-08-21T22:08:05;99793.53;;;13.65;98.48
39699;BME280;25372;50.582;12.250;2022-08-21T22:18:31;99799.84;;;13.37;100.00
39699;BME280;25372;50.582;12.250;2022-08-21T22:28:54;99789.97;;;13.18;100.00
39699;BME280;25372;50.582;12.250;2022-08-21T22:39:32;99787.06;;;13.06;100.00
39699;BME280;25372;50.582;12.250;2022-08-21T22:49:54;99792.56;;;12.98;100.00
39699;BME280;25372;50.582;12.250;2022-08-21T23:00:47;99795.00;;;12.93;100.00
39699;BME280;25372;50.582;12.250;2022-08-21T23:11:12;99796.19;;;12.77;100.00
39699;BME280;25372;50.582;12.250;2022-08-21T23:21:40;99797.47;;;12.87;100.00
39699;BME280;25372;50.582;12.250;2022-08-21T23:32:12;99800.09;;;12.81;100.00
39699;BME280;25372;50.582;12.250;2022-08-21T23:42:49;99803.34;;;12.83;100.00
39699;BME280;25372;50.582;12.250;2022-08-21T23:53:20;99776.91;;;12.61;100.00
